Friday, February 23, 2018, 2:50 PM EST
Back to Local

KRKD, Rockland, Knox County Regional Airport

Location: Owls Head, ME, United States Lat: 44.067
Local Time: 2:50 PM EST (19:50 GMT) Lon: -69.1
Time Zone: US/Eastern Elev: 55 ft

Show me the last for .
Show Coded

Time T Td Feel RH Dir Speed Gust Alt SLP Vis Weather Sky Remarks
2018-02-23 14:13 30 21 22 68 150° 9 - 30.54 - 10 BKN029 BKN120 Pressure falling rapidly
2018-02-23 13:56 31 21 23 66 140° 8 - 30.56 30.57 10 SCT029 SCT120 Pressure falling rapidly
2018-02-23 12:56 31 21 21 66 110° 13 - 30.61 30.61 10 CLR Pressure falling rapidly
6-hr Min Temp (1pm): 26.1°F
6-hr Max Temp (1pm): 32.0°F
2018-02-23 11:56 31 20 22 63 90° 12 - 30.65 30.65 10 CLR None
2018-02-23 10:56 30 18 22 60 80° 8 - 30.69 30.70 10 CLR None
2018-02-23 09:56 29 16 21 57 80° 8 - 30.72 30.73 10 CLR None
2018-02-23 08:56 29 17 20 60 70° 10 - 30.72 30.73 10 CLR None
2018-02-23 07:56 28 15 19 57 60° 10 - 30.74 30.74 10 CLR None
2018-02-23 06:56 26 13 18 56 60° 7 - 30.74 30.74 10 CLR 6-hr Min Temp (7am): 25.0°F
6-hr Max Temp (7am): 28.9°F
2018-02-23 05:56 25 13 18 59 40° 6 - 30.74 30.75 10 CLR None
2018-02-23 04:56 26 13 18 56 50° 7 - 30.74 30.75 10 CLR None
2018-02-23 03:56 26 16 21 65 30° 5 - 30.73 30.73 10 CLR None
2018-02-23 02:56 26 14 21 59 40° 5 - 30.71 30.72 10 CLR None
2018-02-23 01:56 27 13 - 54 - Calm - 30.72 30.72 10 CLR None
2018-02-23 00:56 28 13 21 52 20° 7 - 30.71 30.72 10 CLR 6-hr Min Temp (1am): 27.0°F
6-hr Max Temp (1am): 33.1°F
2018-02-22 23:56 29 14 23 53 40° 6 - 30.69 30.70 10 CLR 24-hr Min Temp (12am): 27.0°F
24-hr Max Temp (12am): 45.0°F
2018-02-22 22:56 31 13 26 46 20° 5 - 30.69 30.69 10 BKN090 None
2018-02-22 21:56 31 12 27 44 Variable 3 - 30.68 30.68 10 CLR None
2018-02-22 20:56 30 13 - 48 - Calm - 30.67 30.67 10 CLR None
2018-02-22 19:56 28 18 - 65 - Calm - 30.66 30.67 10 CLR None
2018-02-22 18:56 33 9 30 35 290° 3 - 30.68 30.68 10 FEW110 6-hr Precip Total (7pm): 0.00"
6-hr Min Temp (7pm): 32.0°F
6-hr Max Temp (7pm): 36.0°F
2018-02-22 17:56 34 8 31 33 310° 3 - 30.66 30.66 10 SCT110 None
2018-02-22 16:56 34 7 31 31 320° 3 - 30.65 30.65 10 OVC100 None
2018-02-22 15:56 35 9 31 33 Variable 5 - 30.63 30.64 10 OVC100 1-hr Precip Total: Trace
6-hr Precip Total (4pm): 0.00"
2018-02-22 14:56 36 15 30 41 290° 7 - 30.62 30.62 10 UP FEW070 SCT100 1-hr Precip Total: Trace

Support USWX by starting your Amazon purchase here.